createdAt,value
2018-04-25T00:01:12.261Z,5.03
2018-04-25T00:03:39.794Z,5.63
2018-04-25T00:06:07.279Z,5.27
2018-04-25T00:08:34.805Z,5.73
2018-04-25T00:11:02.281Z,5.50
2018-04-25T00:13:30.536Z,5.67
2018-04-25T00:15:58.138Z,5.30
2018-04-25T00:18:25.573Z,5.07
2018-04-25T00:20:53.062Z,5.80
2018-04-25T00:23:20.585Z,5.67
2018-04-25T00:25:48.066Z,6.40
2018-04-25T00:28:15.544Z,5.77
2018-04-25T00:30:43.060Z,5.87
2018-04-25T00:33:11.304Z,5.50
2018-04-25T00:35:38.805Z,6.43
2018-04-25T00:38:06.291Z,5.77
2018-04-25T00:40:34.535Z,6.63
2018-04-25T00:43:02.049Z,6.77
2018-04-25T00:45:30.316Z,6.10
2018-04-25T00:47:57.801Z,5.73
2018-04-25T00:50:26.086Z,5.07
2018-04-25T00:52:54.341Z,6.03
2018-04-25T00:55:21.852Z,5.70
2018-04-25T00:57:50.097Z,7.07
2018-04-25T01:00:17.582Z,7.00
2018-04-25T01:02:45.101Z,7.47
2018-04-25T01:05:12.578Z,6.50
2018-04-25T01:07:40.053Z,7.47
2018-04-25T01:10:07.572Z,7.00
2018-04-25T01:12:35.054Z,6.80
2018-04-25T01:15:02.569Z,7.10
2018-04-25T01:17:30.058Z,6.77
2018-04-25T01:19:57.534Z,8.07
2018-04-25T01:22:25.050Z,6.43
2018-04-25T01:24:56.706Z,7.57
2018-04-25T01:27:24.998Z,7.53
2018-04-25T01:29:53.957Z,7.27
2018-04-25T01:32:21.434Z,6.10
2018-04-25T01:34:50.631Z,7.30
2018-04-25T01:40:19.599Z,6.90
2018-04-25T01:42:52.881Z,7.20
2018-04-25T01:45:41.890Z,7.93
2018-04-25T01:51:03.627Z,6.63
2018-04-25T01:53:42.961Z,7.67
2018-04-25T01:56:22.498Z,7.50
2018-04-25T01:59:01.792Z,7.70
2018-04-25T02:01:28.788Z,7.40
2018-04-25T02:03:58.647Z,8.00
2018-04-25T02:06:26.135Z,7.07
2018-04-25T02:08:53.651Z,8.63
2018-04-25T02:11:21.907Z,8.33
2018-04-25T02:13:49.418Z,7.57
2018-04-25T02:16:17.693Z,8.07
2018-04-25T02:18:45.939Z,8.53
2018-04-25T02:21:13.458Z,7.87
2018-04-25T02:23:41.702Z,8.30
2018-04-25T02:26:09.231Z,7.30
2018-04-25T02:28:36.746Z,9.20
2018-04-25T02:31:04.230Z,8.60
2018-04-25T02:33:31.722Z,8.87
2018-04-25T02:36:00.008Z,8.73
2018-04-25T02:38:28.275Z,8.23
2018-04-25T02:40:55.794Z,8.17
2018-04-25T02:43:23.277Z,8.93
2018-04-25T02:45:50.803Z,9.40
2018-04-25T02:48:18.286Z,8.50
2018-04-25T02:50:46.665Z,9.60
2018-04-25T02:53:14.147Z,8.63
2018-04-25T02:55:42.448Z,8.63
2018-04-25T02:58:09.938Z,10.00
2018-04-25T03:00:37.459Z,9.60
2018-04-25T03:03:04.947Z,10.20
2018-04-25T03:05:33.238Z,10.07
2018-04-25T03:08:01.495Z,9.63
2018-04-25T03:10:29.006Z,9.93
2018-04-25T03:12:56.493Z,9.80
2018-04-25T03:15:24.010Z,10.63
2018-04-25T03:17:51.489Z,9.40
2018-04-25T03:20:19.028Z,10.80
2018-04-25T03:22:46.518Z,10.00
2018-04-25T03:25:14.037Z,9.80
2018-04-25T03:27:41.531Z,9.63
2018-04-25T03:30:09.046Z,9.60
2018-04-25T03:32:36.544Z,10.63
2018-04-25T03:35:04.075Z,10.57
2018-04-25T03:37:31.567Z,10.50
2018-04-25T03:39:59.857Z,10.90
2018-04-25T03:42:28.115Z,10.50
2018-04-25T03:44:55.643Z,11.83
2018-04-25T03:47:23.134Z,12.10
2018-04-25T03:49:50.655Z,10.83
2018-04-25T03:52:18.907Z,12.23
2018-04-25T03:54:46.431Z,11.23
2018-04-25T03:57:14.643Z,12.10
2018-04-25T03:59:42.167Z,11.47
2018-04-25T04:02:10.431Z,11.47
2018-04-25T04:04:37.965Z,12.20
2018-04-25T04:07:05.480Z,12.37
2018-04-25T04:09:33.010Z,12.00
2018-04-25T04:12:00.839Z,12.80
2018-04-25T04:14:29.126Z,12.57
2018-04-25T04:16:56.616Z,12.97
2018-04-25T04:19:24.905Z,13.00
2018-04-25T04:21:52.403Z,12.63
2018-04-25T04:24:19.928Z,13.20
2018-04-25T04:26:47.414Z,12.23
2018-04-25T04:29:15.689Z,13.20
2018-04-25T04:31:43.943Z,14.00
2018-04-25T04:34:11.474Z,13.70
2018-04-25T04:36:38.958Z,13.20
2018-04-25T04:39:06.486Z,12.93
2018-04-25T04:41:33.973Z,13.23
2018-04-25T04:44:02.230Z,12.87
2018-04-25T04:46:29.749Z,12.60
2018-04-25T04:48:57.242Z,12.60
2018-04-25T04:51:24.771Z,12.43
2018-04-25T04:53:53.022Z,13.70
2018-04-25T04:56:20.542Z,13.90
2018-04-25T04:58:48.030Z,13.80
2018-04-25T05:01:15.554Z,12.70
2018-04-25T05:03:43.047Z,13.63
2018-04-25T05:06:10.568Z,14.53
2018-04-25T05:08:38.085Z,13.17
2018-04-25T05:11:05.599Z,13.57
2018-04-25T05:13:33.087Z,13.70
2018-04-25T05:16:00.626Z,13.13
2018-04-25T05:18:28.155Z,13.00
2018-04-25T05:20:56.438Z,12.23
2018-04-25T05:23:23.926Z,12.30
2018-04-25T05:25:52.246Z,14.30
2018-04-25T05:28:19.730Z,13.13
2018-04-25T05:30:47.214Z,14.10
2018-04-25T05:33:14.750Z,12.53
2018-04-25T05:35:42.234Z,12.17
2018-04-25T05:38:09.738Z,11.00
2018-04-25T05:40:37.264Z,12.60
2018-04-25T05:43:04.751Z,11.23
2018-04-25T05:45:32.236Z,12.60
2018-04-25T05:47:59.775Z,13.20
2018-04-25T05:50:27.262Z,10.87
2018-04-25T05:52:54.751Z,10.20
2018-04-25T05:55:22.291Z,10.27
2018-04-25T05:57:49.868Z,18.40
2018-04-25T06:00:17.293Z,8.70
2018-04-25T06:02:45.570Z,9.63
2018-04-25T06:05:13.060Z,9.43
2018-04-25T06:07:41.311Z,9.10
2018-04-25T06:10:08.826Z,9.13
2018-04-25T06:12:36.346Z,8.57
2018-04-25T06:15:03.845Z,9.57
2018-04-25T06:17:32.131Z,9.23
2018-04-25T06:19:59.624Z,9.33
2018-04-25T06:22:27.118Z,8.40
2018-04-25T06:24:54.629Z,8.20
2018-04-25T06:27:22.116Z,9.50
2018-04-25T06:29:50.367Z,8.70
2018-04-25T06:32:17.891Z,9.23
2018-04-25T06:34:45.377Z,7.60
2018-04-25T06:37:12.858Z,8.07
2018-04-25T06:39:40.379Z,8.47
2018-04-25T06:42:07.863Z,8.03
2018-04-25T06:44:35.351Z,9.30
2018-04-25T06:47:02.875Z,9.07
2018-04-25T06:49:30.367Z,9.83
2018-04-25T06:51:58.614Z,8.23
2018-04-25T06:54:26.146Z,8.87
2018-04-25T06:56:53.662Z,8.43
2018-04-25T06:59:21.145Z,9.83
2018-04-25T07:01:48.671Z,9.10
2018-04-25T07:04:16.162Z,8.37
2018-04-25T07:06:43.643Z,7.13
2018-04-25T07:09:11.158Z,7.20
2018-04-25T07:11:39.402Z,8.60
2018-04-25T07:14:06.907Z,7.70
2018-04-25T07:16:34.434Z,7.10
2018-04-25T07:19:01.925Z,6.70
2018-04-25T07:21:29.415Z,6.73
2018-04-25T07:23:57.765Z,7.20
2018-04-25T07:26:25.212Z,6.40
2018-04-25T07:28:52.710Z,7.57
2018-04-25T07:31:20.227Z,7.33
2018-04-25T07:33:48.476Z,7.90
2018-04-25T07:36:15.990Z,9.00
2018-04-25T07:38:43.511Z,8.20
2018-04-25T07:41:10.995Z,8.10
2018-04-25T07:43:38.478Z,8.77
2018-04-25T07:46:06.765Z,9.60
2018-04-25T07:48:34.246Z,8.50
2018-04-25T07:51:02.521Z,7.83
2018-04-25T07:53:30.042Z,9.10
2018-04-25T07:55:57.523Z,8.87
2018-04-25T07:58:25.003Z,8.37
2018-04-25T08:00:52.531Z,10.67
2018-04-25T08:03:20.012Z,8.83
2018-04-25T08:05:47.531Z,9.57
2018-04-25T08:08:15.019Z,9.40
2018-04-25T08:10:43.274Z,10.10
2018-04-25T08:13:22.738Z,8.90
2018-04-25T08:16:02.127Z,8.90
2018-04-25T08:18:41.423Z,8.93
2018-04-25T08:21:19.572Z,9.77
2018-04-25T08:23:47.145Z,8.63
2018-04-25T08:26:14.590Z,8.97
2018-04-25T08:28:42.119Z,9.13
2018-04-25T08:31:09.625Z,8.63
2018-04-25T08:33:37.169Z,9.43
2018-04-25T08:36:04.630Z,8.20
2018-04-25T08:38:32.110Z,9.73
2018-04-25T08:40:59.630Z,10.63
2018-04-25T08:43:27.151Z,9.63
2018-04-25T08:45:54.635Z,9.60
2018-04-25T08:48:22.128Z,10.13
2018-04-25T08:50:49.655Z,9.70
2018-04-25T08:53:17.142Z,10.40
2018-04-25T08:55:44.642Z,10.27
2018-04-25T08:58:12.163Z,10.20
2018-04-25T09:00:39.654Z,10.03
2018-04-25T09:03:07.142Z,9.80
2018-04-25T09:05:34.667Z,9.67
2018-04-25T09:08:02.161Z,9.40
2018-04-25T09:10:29.650Z,10.07
2018-04-25T09:12:57.179Z,9.40
2018-04-25T09:15:24.667Z,8.60
2018-04-25T09:17:52.167Z,9.93
2018-04-25T09:20:19.745Z,10.30
2018-04-25T09:22:47.206Z,9.70
2018-04-25T09:25:15.456Z,9.27
2018-04-25T09:27:42.987Z,9.73
2018-04-25T09:30:10.473Z,9.27
2018-04-25T09:32:38.728Z,10.27
2018-04-25T09:35:06.255Z,9.10
2018-04-25T09:37:33.734Z,9.80
2018-04-25T09:40:01.226Z,9.50
2018-04-25T09:42:28.749Z,9.20
2018-04-25T09:44:57.003Z,9.30
2018-04-25T09:47:24.494Z,9.60
2018-04-25T09:49:52.794Z,9.07
2018-04-25T09:52:22.361Z,9.03
2018-04-25T09:54:49.876Z,8.53
2018-04-25T09:57:18.157Z,8.80
2018-04-25T09:59:45.639Z,8.53
2018-04-25T10:02:19.522Z,8.87
2018-04-25T10:04:47.037Z,7.77
2018-04-25T10:07:15.294Z,8.77
2018-04-25T10:09:42.806Z,9.30
2018-04-25T10:12:10.287Z,8.30
2018-04-25T10:14:37.803Z,9.20
2018-04-25T10:17:05.346Z,8.00
2018-04-25T10:19:32.817Z,7.77
2018-04-25T10:22:00.314Z,8.57
2018-04-25T10:24:27.843Z,8.00
2018-04-25T10:26:55.330Z,9.30
2018-04-25T10:29:22.819Z,8.50
2018-04-25T10:31:51.114Z,7.67
2018-04-25T10:34:18.598Z,7.67
2018-04-25T10:36:46.850Z,7.40
2018-04-25T10:39:14.370Z,7.70
2018-04-25T10:41:42.661Z,7.37
2018-04-25T10:44:10.187Z,7.47
2018-04-25T10:46:38.414Z,7.73
2018-04-25T10:49:06.671Z,7.50
2018-04-25T10:51:34.195Z,7.37
2018-04-25T10:54:01.681Z,6.07
2018-04-25T10:56:29.167Z,6.67
2018-04-25T10:58:56.694Z,6.90
2018-04-25T11:01:24.193Z,6.90
2018-04-25T11:03:51.681Z,7.10
2018-04-25T11:06:19.234Z,7.83
2018-04-25T11:08:46.718Z,7.57
2018-04-25T11:11:14.199Z,7.27
2018-04-25T11:13:41.710Z,6.63
2018-04-25T11:16:09.962Z,7.13
2018-04-25T11:18:37.482Z,7.70
2018-04-25T11:21:04.998Z,6.80
2018-04-25T11:23:32.490Z,6.93
2018-04-25T11:26:00.063Z,6.70
2018-04-25T11:28:27.542Z,5.67
2018-04-25T11:30:55.802Z,7.17
2018-04-25T11:33:23.287Z,7.97
2018-04-25T11:35:50.813Z,7.70
2018-04-25T11:38:18.298Z,7.00
2018-04-25T11:40:45.775Z,6.70
2018-04-25T11:43:13.306Z,8.57
2018-04-25T11:45:40.785Z,8.23
2018-04-25T11:48:08.261Z,7.80
2018-04-25T11:50:35.786Z,7.53
2018-04-25T11:53:03.267Z,6.83
2018-04-25T11:55:31.519Z,7.20
2018-04-25T11:57:59.040Z,6.27
2018-04-25T12:00:26.523Z,6.63
2018-04-25T12:02:54.036Z,6.37
2018-04-25T12:05:21.530Z,5.63
2018-04-25T12:07:50.001Z,5.80
2018-04-25T12:10:17.482Z,5.13
2018-04-25T12:12:45.013Z,6.47
2018-04-25T12:15:12.521Z,5.07
2018-04-25T12:17:40.006Z,6.53
2018-04-25T12:20:08.286Z,6.53
2018-04-25T12:22:35.765Z,5.77
2018-04-25T12:25:04.010Z,5.67
2018-04-25T12:27:31.522Z,6.10
2018-04-25T12:29:59.783Z,5.80
2018-04-25T12:32:27.311Z,5.80
2018-04-25T12:34:54.795Z,5.70
2018-04-25T12:37:22.311Z,6.57
2018-04-25T12:39:49.794Z,5.77
2018-04-25T12:42:17.327Z,6.60
2018-04-25T12:44:44.806Z,6.70
2018-04-25T12:47:12.337Z,6.60
2018-04-25T12:49:39.810Z,6.70
2018-04-25T12:52:07.290Z,7.47
2018-04-25T12:54:34.809Z,7.50
2018-04-25T12:57:02.326Z,7.27
2018-04-25T12:59:29.818Z,6.30
2018-04-25T13:01:57.338Z,5.77
2018-04-25T13:04:25.630Z,4.90
2018-04-25T13:06:53.149Z,4.43
2018-04-25T13:09:20.634Z,4.67
2018-04-25T13:11:48.156Z,5.33
2018-04-25T13:14:15.648Z,5.67
2018-04-25T13:16:43.130Z,6.00
2018-04-25T13:19:10.659Z,5.93
2018-04-25T13:21:38.145Z,5.63
2018-04-25T13:24:05.621Z,4.30
2018-04-25T13:26:33.151Z,5.43
2018-04-25T13:29:01.399Z,5.00
2018-04-25T13:31:28.907Z,5.00
2018-04-25T13:33:57.192Z,4.57
2018-04-25T13:36:25.447Z,4.37
2018-04-25T13:38:52.947Z,4.93
2018-04-25T13:41:21.231Z,3.87
2018-04-25T13:43:48.718Z,3.60
2018-04-25T13:46:17.019Z,4.80
2018-04-25T13:48:44.650Z,4.07
2018-04-25T13:51:12.135Z,3.30
2018-04-25T13:53:39.618Z,3.00
2018-04-25T13:56:07.902Z,3.60
2018-04-25T13:58:36.146Z,3.50
2018-04-25T14:01:03.635Z,3.63
2018-04-25T14:03:31.149Z,3.50
2018-04-25T14:05:58.637Z,3.60
2018-04-25T14:08:26.172Z,3.40
2018-04-25T14:10:54.458Z,3.53
2018-04-25T14:13:22.722Z,5.37
2018-04-25T14:15:50.251Z,3.43
2018-04-25T14:18:17.774Z,3.20
2018-04-25T14:20:45.258Z,2.40
2018-04-25T14:23:13.534Z,2.53
2018-04-25T14:25:41.059Z,2.37
2018-04-25T14:28:08.540Z,2.70
2018-04-25T14:30:36.022Z,2.67
2018-04-25T14:33:03.533Z,2.50
2018-04-25T14:35:31.787Z,1.87
2018-04-25T14:37:59.276Z,1.90
2018-04-25T14:40:26.851Z,2.37
2018-04-25T14:42:55.104Z,2.47
2018-04-25T14:45:22.678Z,1.67
2018-04-25T14:47:50.211Z,1.53
2018-04-25T14:50:17.699Z,2.03
2018-04-25T14:52:45.217Z,1.67
2018-04-25T14:55:12.734Z,2.37
2018-04-25T14:57:40.210Z,3.70
2018-04-25T15:00:07.703Z,2.70
2018-04-25T15:02:35.214Z,2.07
2018-04-25T15:05:03.468Z,2.30
2018-04-25T15:07:30.954Z,1.87
2018-04-25T15:09:58.487Z,2.30
2018-04-25T15:12:25.986Z,2.20
2018-04-25T15:14:53.487Z,1.80
2018-04-25T15:17:21.786Z,2.50
2018-04-25T15:19:49.294Z,2.70
2018-04-25T15:22:16.775Z,2.03
2018-04-25T15:24:44.305Z,1.80
2018-04-25T15:27:11.790Z,2.07
2018-04-25T15:29:39.268Z,2.40
2018-04-25T15:32:06.807Z,1.77
2018-04-25T15:34:34.295Z,1.63
2018-04-25T15:37:01.781Z,1.90
2018-04-25T15:39:29.307Z,1.90
2018-04-25T15:41:56.787Z,2.00
2018-04-25T15:44:24.274Z,1.80
2018-04-25T15:46:51.809Z,2.10
2018-04-25T15:49:20.067Z,6.80
2018-04-25T15:51:47.550Z,3.00
2018-04-25T15:54:15.072Z,2.87
2018-04-25T15:56:42.558Z,2.73
2018-04-25T15:59:10.071Z,3.03
2018-04-25T16:01:37.593Z,2.97
2018-04-25T16:04:05.074Z,3.33
2018-04-25T16:06:32.623Z,2.73
2018-04-25T16:09:00.144Z,2.77
2018-04-25T16:11:27.635Z,2.77
2018-04-25T16:13:55.922Z,3.07
2018-04-25T16:16:24.206Z,3.03
2018-04-25T16:18:52.454Z,3.10
2018-04-25T16:21:19.943Z,3.37
2018-04-25T16:23:47.478Z,4.07
2018-04-25T16:26:14.962Z,3.00
2018-04-25T16:28:42.449Z,3.83
2018-04-25T16:31:09.982Z,3.50
2018-04-25T16:33:37.479Z,4.20
2018-04-25T16:36:04.970Z,3.23
2018-04-25T16:38:32.593Z,3.33
2018-04-25T16:41:00.021Z,3.70
2018-04-25T16:43:28.293Z,3.63
2018-04-25T16:45:55.814Z,3.10
2018-04-25T16:48:23.314Z,3.13
2018-04-25T16:50:50.811Z,3.10
2018-04-25T16:53:18.350Z,2.80
2018-04-25T16:55:45.839Z,3.70
2018-04-25T16:58:13.329Z,9.30
2018-04-25T17:00:40.872Z,13.20
2018-04-25T17:03:08.358Z,4.23
2018-04-25T17:05:35.847Z,2.93
2018-04-25T17:08:03.373Z,3.20
2018-04-25T17:10:30.858Z,3.27
2018-04-25T17:12:58.388Z,3.10
2018-04-25T17:15:25.914Z,2.67
2018-04-25T17:17:53.422Z,2.97
2018-04-25T17:20:20.910Z,2.90
2018-04-25T17:22:48.447Z,2.57
2018-04-25T17:25:16.698Z,3.07
2018-04-25T17:27:44.176Z,3.10
2018-04-25T17:30:11.703Z,2.43
2018-04-25T17:32:39.190Z,2.77
2018-04-25T17:35:06.674Z,3.13
2018-04-25T17:37:34.198Z,3.17
2018-04-25T17:40:02.455Z,3.20
2018-04-25T17:42:29.956Z,3.50
2018-04-25T17:44:58.234Z,5.83
2018-04-25T17:47:26.486Z,3.20
2018-04-25T17:49:54.014Z,2.30
2018-04-25T17:52:21.542Z,2.63
2018-04-25T17:54:49.026Z,2.90
2018-04-25T17:57:16.554Z,2.93
2018-04-25T17:59:44.037Z,2.90
2018-04-25T18:02:11.554Z,3.50
2018-04-25T18:04:39.841Z,2.80
2018-04-25T18:07:07.333Z,2.70
2018-04-25T18:09:34.867Z,5.13
2018-04-25T18:12:02.407Z,2.90
2018-04-25T18:14:29.898Z,2.30
2018-04-25T18:16:57.456Z,3.00
2018-04-25T18:19:24.938Z,2.77
2018-04-25T18:21:52.431Z,2.83
2018-04-25T18:24:20.719Z,2.80
2018-04-25T18:26:49.043Z,2.90
2018-04-25T18:29:16.530Z,2.77
2018-04-25T18:31:44.037Z,3.10
2018-04-25T18:34:11.637Z,2.53
2018-04-25T18:36:39.064Z,2.30
2018-04-25T18:39:06.591Z,3.00
2018-04-25T18:41:34.128Z,2.80
2018-04-25T18:44:02.416Z,6.63
2018-04-25T18:46:29.883Z,6.83
2018-04-25T18:48:58.170Z,4.63
2018-04-25T18:51:25.650Z,3.17
2018-04-25T18:53:53.946Z,2.77
2018-04-25T18:56:22.201Z,3.23
2018-04-25T18:58:49.722Z,3.77
2018-04-25T19:01:17.238Z,3.47
2018-04-25T19:03:44.723Z,3.40
2018-04-25T19:06:12.210Z,3.30
2018-04-25T19:08:40.510Z,3.20
2018-04-25T19:11:07.998Z,2.90
2018-04-25T19:13:35.483Z,3.40
2018-04-25T19:16:03.007Z,2.87
2018-04-25T19:18:31.254Z,3.90
2018-04-25T19:20:58.745Z,3.00
2018-04-25T19:23:26.294Z,3.53
2018-04-25T19:25:53.814Z,15.10
2018-04-25T19:28:22.070Z,18.40
2018-04-25T19:30:49.582Z,4.73
2018-04-25T19:33:17.059Z,3.30
2018-04-25T19:35:44.576Z,3.60
2018-04-25T19:38:12.096Z,3.23
2018-04-25T19:40:39.584Z,3.67
2018-04-25T19:43:07.119Z,3.70
2018-04-25T19:45:35.416Z,3.67
2018-04-25T19:48:02.910Z,3.17
2018-04-25T19:50:30.431Z,3.23
2018-04-25T19:52:58.035Z,3.70
2018-04-25T19:55:25.530Z,3.03
2018-04-25T19:57:53.061Z,2.87
2018-04-25T20:00:21.358Z,3.27
2018-04-25T20:02:49.182Z,2.90
2018-04-25T20:05:16.709Z,3.50
2018-04-25T20:07:44.994Z,9.37
2018-04-25T20:10:13.254Z,4.00
2018-04-25T20:12:40.777Z,3.30
2018-04-25T20:15:08.314Z,2.60
2018-04-25T20:17:35.809Z,2.50
2018-04-25T20:20:03.295Z,2.77
2018-04-25T20:22:30.810Z,2.37
2018-04-25T20:24:58.291Z,2.60
2018-04-25T20:27:25.779Z,2.53
2018-04-25T20:29:54.065Z,2.63
2018-04-25T20:32:22.315Z,3.17
2018-04-25T20:34:49.798Z,2.83
2018-04-25T20:37:17.337Z,3.33
2018-04-25T20:39:44.879Z,2.00
2018-04-25T20:42:12.329Z,2.20
2018-04-25T20:44:40.635Z,2.10
2018-04-25T20:47:08.114Z,2.40
2018-04-25T20:49:35.599Z,1.90
2018-04-25T20:52:03.125Z,1.83
2018-04-25T20:54:31.379Z,1.37
2018-04-25T20:56:58.890Z,1.80
2018-04-25T20:59:27.162Z,2.00
2018-04-25T21:01:54.647Z,4.73
2018-04-25T21:04:22.902Z,14.43
2018-04-25T21:06:50.428Z,2.27
2018-04-25T21:09:17.924Z,1.90
2018-04-25T21:11:45.411Z,1.63
2018-04-25T21:14:12.947Z,1.90
2018-04-25T21:16:40.430Z,1.90
2018-04-25T21:19:07.915Z,2.03
2018-04-25T21:21:35.434Z,1.60
2018-04-25T21:24:02.940Z,1.90
2018-04-25T21:26:30.426Z,2.70
2018-04-25T21:28:57.941Z,1.80
2018-04-25T21:31:26.261Z,1.50
2018-04-25T21:33:53.727Z,1.80
2018-04-25T21:36:21.211Z,1.73
2018-04-25T21:38:48.734Z,1.40
2018-04-25T21:41:16.980Z,2.07
2018-04-25T21:43:44.494Z,2.13
2018-04-25T21:46:12.743Z,1.57
2018-04-25T21:48:40.263Z,5.00
2018-04-25T21:51:07.819Z,2.10
2018-04-25T21:53:35.275Z,1.80
2018-04-25T21:56:02.799Z,1.80
2018-04-25T21:58:30.319Z,2.00
2018-04-25T22:00:57.794Z,1.80
2018-04-25T22:03:26.076Z,2.03
2018-04-25T22:05:53.598Z,1.90
2018-04-25T22:08:21.088Z,1.63
2018-04-25T22:10:48.565Z,2.30
2018-04-25T22:13:16.095Z,2.23
2018-04-25T22:15:43.574Z,1.90
2018-04-25T22:18:11.059Z,2.13
2018-04-25T22:20:38.595Z,1.90
2018-04-25T22:23:06.083Z,2.20
2018-04-25T22:25:33.557Z,2.70
2018-04-25T22:28:01.070Z,2.70
2018-04-25T22:30:28.555Z,7.10
2018-04-25T22:32:56.811Z,8.37
2018-04-25T22:35:24.346Z,3.10
2018-04-25T22:37:51.835Z,2.63
2018-04-25T22:40:19.314Z,2.10
2018-04-25T22:42:46.838Z,2.93
2018-04-25T22:45:15.086Z,2.80
2018-04-25T22:47:42.574Z,3.10
2018-04-25T22:50:10.096Z,2.93
2018-04-25T22:52:37.601Z,3.40
2018-04-25T22:55:05.091Z,2.97
2018-04-25T22:57:33.386Z,2.97
2018-04-25T23:00:01.634Z,2.80
2018-04-25T23:02:29.127Z,2.87
2018-04-25T23:04:56.654Z,3.00
2018-04-25T23:07:24.142Z,3.03
2018-04-25T23:09:51.623Z,3.20
2018-04-25T23:12:19.142Z,3.30
2018-04-25T23:14:46.621Z,3.00
2018-04-25T23:17:14.107Z,3.23
2018-04-25T23:19:41.622Z,2.73
2018-04-25T23:22:09.150Z,2.93
2018-04-25T23:24:36.666Z,2.63
2018-04-25T23:27:04.951Z,2.90
2018-04-25T23:29:33.205Z,2.90
2018-04-25T23:32:00.726Z,2.60
2018-04-25T23:34:29.011Z,2.70
2018-04-25T23:36:57.267Z,2.47
2018-04-25T23:39:24.787Z,2.70
2018-04-25T23:41:52.298Z,3.90
2018-04-25T23:44:19.789Z,2.87
2018-04-25T23:46:48.090Z,2.97
2018-04-25T23:49:15.606Z,2.80
2018-04-25T23:51:43.090Z,3.27
2018-04-25T23:54:10.606Z,2.73
2018-04-25T23:56:38.895Z,3.13
2018-04-25T23:59:07.156Z,2.33
